Time;durP1;ratioP1;P1;durP2;ratioP2;P2;SDS_P1;SDS_P2;PMS_P1;PMS_P2;Temp;Humidity;BMP_temperature;BMP_pressure;BME280_temperature;BME280_humidity;BME280_pressure;Samples;Min_cycle;Max_cycle;Signal;HPM_P1;HPM_P2
2022/09/30 00:01:06;;;;;;;18.02;10.82;;;;;;;14.90;77.35;99874.27;1704465;82;21085;-46
2022/09/30 00:03:33;;;;;;;15.13;10.58;;;;;;;14.88;77.56;99880.23;1685345;82;21012;-46
2022/09/30 00:06:03;;;;;;;15.40;10.30;;;;;;;14.84;77.68;99874.91;1681335;84;21134;-48
2022/09/30 00:08:30;;;;;;;14.45;9.98;;;;;;;14.81;77.67;99871.26;1677914;82;21146;-47
2022/09/30 00:11:16;;;;;;;13.83;9.40;;;;;;;14.84;77.67;99870.94;1683539;84;21518;-46
2022/09/30 00:13:40;;;;;;;13.85;10.40;;;;;;;14.84;77.70;99870.47;1702006;82;21175;-46
2022/09/30 00:16:08;;;;;;;13.83;10.43;;;;;;;14.83;77.83;99871.44;1684674;83;21043;-45
2022/09/30 00:18:35;;;;;;;11.28;9.50;;;;;;;14.83;78.08;99886.02;1671068;84;21074;-46
2022/09/30 00:21:02;;;;;;;16.35;10.63;;;;;;;14.82;78.29;99884.84;1701566;84;21083;-45
2022/09/30 00:23:29;;;;;;;13.45;8.65;;;;;;;14.85;78.39;99872.61;1705592;82;21079;-46
2022/09/30 00:26:03;;;;;;;14.50;9.85;;;;;;;14.92;78.17;99869.63;1699686;82;21157;-46
2022/09/30 00:28:30;;;;;;;11.40;8.87;;;;;;;14.96;78.07;99872.30;1688399;82;21047;-46
2022/09/30 00:31:01;;;;;;;12.63;9.63;;;;;;;14.98;78.17;99866.34;1685559;82;21536;-46
2022/09/30 00:33:27;;;;;;;11.97;9.33;;;;;;;14.96;78.33;99867.00;1689515;82;21031;-46
2022/09/30 00:35:54;;;;;;;13.98;9.03;;;;;;;14.93;78.56;99866.47;1706886;82;21007;-46
2022/09/30 00:38:20;;;;;;;14.13;7.80;;;;;;;14.94;78.72;99861.52;1701419;82;21203;-46
2022/09/30 00:40:48;;;;;;;9.70;6.87;;;;;;;14.99;78.78;99867.16;1681516;84;21115;-46
2022/09/30 00:43:19;;;;;;;12.43;7.55;;;;;;;15.06;79.02;99868.14;1686529;82;21012;-46
2022/09/30 00:45:57;;;;;;;12.93;8.25;;;;;;;15.12;79.22;99871.98;1689712;82;21016;-46
2022/09/30 00:48:32;;;;;;;10.55;7.70;;;;;;;15.14;79.54;99883.23;1689963;82;21067;-46
2022/09/30 00:50:58;;;;;;;11.75;7.55;;;;;;;15.15;79.82;99892.85;1711359;81;21779;-46
2022/09/30 00:53:33;;;;;;;13.38;8.30;;;;;;;15.19;79.95;99894.98;1717605;81;21098;-46
2022/09/30 00:56:18;;;;;;;13.28;8.43;;;;;;;15.24;79.80;99890.02;1749357;81;21040;-46
2022/09/30 00:58:49;;;;;;;12.93;9.73;;;;;;;15.28;79.63;99899.82;1739648;80;21054;-46
2022/09/30 01:01:16;;;;;;;13.48;9.43;;;;;;;15.30;79.66;99898.30;1691296;84;21058;-46
2022/09/30 01:03:58;;;;;;;12.35;9.60;;;;;;;15.31;79.78;99902.63;1696482;82;21144;-46
2022/09/30 01:06:24;;;;;;;10.68;8.50;;;;;;;15.29;79.56;99897.98;1688864;84;21059;-46
2022/09/30 01:08:51;;;;;;;11.10;8.48;;;;;;;15.27;79.32;99899.98;1690949;83;21165;-46
2022/09/30 01:11:18;;;;;;;11.12;7.78;;;;;;;15.25;79.27;99900.14;1690550;83;21022;-46
2022/09/30 01:13:48;;;;;;;10.20;7.70;;;;;;;15.27;79.35;99898.15;1704777;83;21045;-46
2022/09/30 01:16:32;;;;;;;11.25;7.97;;;;;;;15.29;79.56;99900.13;1673646;85;21150;-46
2022/09/30 01:19:34;;;;;;;12.63;9.20;;;;;;;15.27;79.74;99899.98;1677053;83;21076;-46
2022/09/30 01:22:27;;;;;;;11.75;8.03;;;;;;;15.23;79.98;99904.76;1668428;84;21015;-46
2022/09/30 01:25:14;;;;;;;12.10;8.33;;;;;;;15.26;80.21;99909.73;1695818;84;21079;-46
2022/09/30 01:28:24;;;;;;;11.88;8.15;;;;;;;15.32;80.23;99910.91;1690216;84;22502;-47
2022/09/30 01:31:08;;;;;;;12.10;8.58;;;;;;;15.35;80.10;99910.08;1673493;85;21780;-46
2022/09/30 01:33:49;;;;;;;11.22;7.95;;;;;;;15.35;80.09;99914.06;1673736;83;21086;-47
2022/09/30 01:36:52;;;;;;;11.65;7.90;;;;;;;15.30;80.18;99911.08;1666759;83;21625;-46
2022/09/30 01:39:48;;;;;;;11.00;7.22;;;;;;;15.28;80.21;99907.77;1671012;83;21025;-47
2022/09/30 01:42:41;;;;;;;12.10;6.90;;;;;;;15.29;80.16;99904.11;1696328;82;21623;-46
2022/09/30 01:45:19;;;;;;;12.07;7.00;;;;;;;15.29;80.27;99903.29;1674286;83;21308;-46
2022/09/30 01:48:02;;;;;;;9.05;6.50;;;;;;;15.24;80.51;99903.77;1675464;83;21023;-47
2022/09/30 01:50:55;;;;;;;11.12;6.15;;;;;;;15.24;80.69;99903.27;1676101;83;21109;-47
2022/09/30 01:53:32;;;;;;;12.82;6.05;;;;;;;15.26;80.74;99899.12;1676990;83;21099;-47
2022/09/30 01:56:19;;;;;;;10.85;5.90;;;;;;;15.28;80.81;99902.47;1673972;83;21066;-47
2022/09/30 01:59:09;;;;;;;11.93;7.55;;;;;;;15.28;80.81;99905.59;1681226;83;21099;-47
2022/09/30 02:02:10;;;;;;;12.65;8.08;;;;;;;15.21;81.02;99905.42;1676566;83;21055;-47
2022/09/30 02:04:46;;;;;;;11.65;7.87;;;;;;;15.16;81.32;99902.44;1626992;86;21106;-47
2022/09/30 02:07:33;;;;;;;11.63;6.40;;;;;;;15.15;81.42;99901.63;1636882;86;21073;-47
2022/09/30 02:10:08;;;;;;;11.80;7.17;;;;;;;15.17;81.34;99904.93;1633674;86;21116;-46
2022/09/30 02:12:38;;;;;;;9.55;7.25;;;;;;;15.17;81.22;99900.95;1647773;85;21092;-47
2022/09/30 02:15:11;;;;;;;10.43;7.00;;;;;;;15.17;81.26;99906.77;1661666;85;21079;-47
2022/09/30 02:17:43;;;;;;;12.00;6.20;;;;;;;15.12;81.35;99901.13;1632731;86;21092;-46
2022/09/30 02:20:16;;;;;;;12.10;6.75;;;;;;;15.07;81.20;99901.61;1658083;86;21068;-46
2022/09/30 02:22:55;;;;;;;10.58;6.95;;;;;;;15.03;81.07;99911.71;1653165;85;21150;-46
2022/09/30 02:25:29;;;;;;;11.43;6.03;;;;;;;15.02;80.84;99910.05;1633773;86;21126;-46
2022/09/30 02:27:59;;;;;;;12.07;6.25;;;;;;;15.01;80.72;99915.03;1652614;86;21165;-46
2022/09/30 02:30:26;;;;;;;12.85;7.33;;;;;;;14.98;80.66;99910.05;1634626;86;21071;-46
2022/09/30 02:33:03;;;;;;;13.50;7.00;;;;;;;14.93;80.81;99905.73;1654795;86;21569;-46
2022/09/30 02:35:37;;;;;;;10.43;6.33;;;;;;;14.89;80.94;99904.39;1628074;87;21115;-47
2022/09/30 02:38:20;;;;;;;11.60;6.80;;;;;;;14.84;80.87;99904.05;1655068;86;21783;-47
2022/09/30 02:40:54;;;;;;;7.75;5.42;;;;;;;14.86;80.67;99908.68;1658637;84;21072;-47
2022/09/30 02:43:21;;;;;;;10.05;6.90;;;;;;;14.85;80.51;99913.66;1654672;86;21083;-47
2022/09/30 02:45:53;;;;;;;12.82;6.40;;;;;;;14.82;80.47;99917.95;1631127;87;21070;-47
2022/09/30 02:48:45;;;;;;;9.85;7.17;;;;;;;14.78;80.60;99922.75;1652939;86;21133;-47
2022/09/30 02:51:23;;;;;;;9.95;6.20;;;;;;;14.76;80.67;99922.56;1612008;86;21095;-46
2022/09/30 02:54:04;;;;;;;9.40;6.37;;;;;;;14.75;80.62;99922.25;1709646;80;21569;-47
2022/09/30 02:56:56;;;;;;;11.10;6.50;;;;;;;14.78;80.46;99925.91;1744448;80;21016;-47
2022/09/30 02:59:23;;;;;;;11.48;6.53;;;;;;;14.81;80.40;99924.23;1748858;80;21061;-46
2022/09/30 03:01:50;;;;;;;9.80;6.60;;;;;;;14.77;80.17;99926.88;1740036;80;21462;-46
2022/09/30 03:04:23;;;;;;;11.93;6.60;;;;;;;14.71;80.27;99934.14;1734859;80;22130;-47
2022/09/30 03:06:52;;;;;;;9.18;5.97;;;;;;;14.64;80.37;99933.95;1741251;80;21042;-47
2022/09/30 03:09:24;;;;;;;9.73;6.15;;;;;;;14.61;80.33;99935.61;1744937;80;21082;-47
2022/09/30 03:11:54;;;;;;;8.85;5.92;;;;;;;14.62;80.16;99932.78;1735898;81;21000;-47
2022/09/30 03:14:37;;;;;;;11.90;7.33;;;;;;;14.60;79.89;99932.12;1743005;80;21562;-47
2022/09/30 03:17:49;;;;;;;13.35;8.33;;;;;;;14.55;79.83;99931.73;1736776;81;21218;-63
2022/09/30 03:20:24;;;;;;;12.90;8.78;;;;;;;14.46;79.87;99926.91;1738458;80;21024;-63
2022/09/30 03:23:18;;;;;;;11.03;7.17;;;;;;;14.34;80.11;99924.70;1735519;80;21055;-62
2022/09/30 03:26:11;;;;;;;11.97;7.65;;;;;;;14.30;80.10;99930.30;1741227;80;21072;-63
2022/09/30 03:28:55;;;;;;;12.03;7.50;;;;;;;14.30;79.83;99936.09;1746647;80;21467;-63
2022/09/30 03:31:48;;;;;;;11.00;7.40;;;;;;;14.24;79.80;99924.34;1755812;81;21121;-63
2022/09/30 03:34:51;;;;;;;14.87;7.97;;;;;;;14.20;79.98;99929.59;1747695;80;21004;-64
2022/09/30 03:40:49;;;;;;;8.63;6.58;;;;;;;14.09;80.37;99936.49;1697526;82;21066;-65
2022/09/30 03:43:34;;;;;;;14.07;7.58;;;;;;;14.04;79.87;99936.14;1710403;82;21606;-65
2022/09/30 03:46:09;;;;;;;11.13;8.00;;;;;;;14.01;79.64;99933.80;1708215;82;21619;-64
2022/09/30 03:48:36;;;;;;;;;;;;;;;13.96;79.70;99947.98;1708074;83;21560;-63
2022/09/30 03:51:03;;;;;;;9.20;6.85;;;;;;;13.90;80.23;99951.59;1707615;83;20239;-64
2022/09/30 03:53:30;;;;;;;9.25;7.00;;;;;;;13.87;80.53;99962.47;1704672;82;21758;-65
2022/09/30 03:55:57;;;;;;;11.33;7.70;;;;;;;13.86;80.71;99956.83;1674675;83;21046;-65
2022/09/30 03:58:24;;;;;;;12.20;8.10;;;;;;;13.89;80.69;99961.81;1707466;83;21208;-64
2022/09/30 04:00:52;;;;;;;12.47;8.70;;;;;;;13.92;80.61;99972.09;1706877;83;21061;-64
2022/09/30 04:03:20;;;;;;;13.95;10.15;;;;;;;13.96;80.76;99984.52;1704396;83;21106;-64
2022/09/30 04:05:47;;;;;;;12.05;9.45;;;;;;;13.99;81.12;99986.03;1701891;83;21073;-64
2022/09/30 04:08:14;;;;;;;13.08;8.65;;;;;;;14.00;81.21;99991.14;1705824;82;21102;-64
2022/09/30 04:10:41;;;;;;;13.32;8.40;;;;;;;14.04;81.14;99989.05;1705825;83;21816;-65
2022/09/30 04:13:08;;;;;;;12.70;8.60;;;;;;;14.11;80.92;99994.86;1706460;83;21106;-65
2022/09/30 04:15:35;;;;;;;14.30;9.70;;;;;;;14.17;80.68;100000.05;1706783;83;21490;-65
2022/09/30 04:18:04;;;;;;;14.75;10.40;;;;;;;14.18;80.57;100007.48;1707311;82;21077;-64
2022/09/30 04:20:31;;;;;;;14.05;9.30;;;;;;;14.18;80.71;100019.39;1707801;83;21098;-64
2022/09/30 04:23:00;;;;;;;13.95;9.53;;;;;;;14.17;80.98;100025.19;1708823;83;21133;-64
2022/09/30 04:25:27;;;;;;;13.55;9.43;;;;;;;14.22;81.13;100018.93;1705099;83;21069;-64
2022/09/30 04:27:54;;;;;;;13.85;9.43;;;;;;;14.27;80.89;100011.36;1707710;83;21161;-64
2022/09/30 04:30:21;;;;;;;16.25;10.82;;;;;;;14.34;80.95;100021.30;1701040;83;21050;-64
2022/09/30 04:32:48;;;;;;;13.78;9.78;;;;;;;14.44;81.53;100015.39;1713158;82;21082;-64
2022/09/30 04:35:14;;;;;;;15.03;10.40;;;;;;;14.54;81.94;100014.82;1711368;83;21258;-65
2022/09/30 04:37:43;;;;;;;15.18;9.93;;;;;;;14.61;82.02;100016.37;1711132;82;21061;-64
2022/09/30 04:40:11;;;;;;;12.33;9.30;;;;;;;14.68;82.37;100008.95;1712131;83;21097;-64
2022/09/30 04:42:41;;;;;;;13.25;9.53;;;;;;;14.80;82.51;100008.16;1709262;82;21176;-63
2022/09/30 04:45:11;;;;;;;13.03;9.83;;;;;;;14.95;82.47;100012.36;1717340;83;21070;-64
2022/09/30 04:47:40;;;;;;;14.78;10.48;;;;;;;15.07;82.22;100011.58;1716616;82;21113;-64
2022/09/30 04:50:08;;;;;;;18.90;11.70;;;;;;;15.13;82.05;100016.71;1714572;83;21628;-64
2022/09/30 04:52:34;;;;;;;15.65;12.53;;;;;;;15.16;82.15;100012.42;1712465;82;21663;-64
2022/09/30 04:55:01;;;;;;;21.23;13.53;;;;;;;15.18;82.35;100021.03;1711929;82;21164;-63
2022/09/30 04:57:28;;;;;;;20.82;13.68;;;;;;;15.21;82.51;100022.89;1706586;83;21117;-64
2022/09/30 04:59:54;;;;;;;17.52;12.78;;;;;;;15.30;82.58;100022.41;1716946;83;21189;-64
2022/09/30 05:02:23;;;;;;;17.12;13.20;;;;;;;15.39;82.65;100027.22;1713694;82;21646;-64
2022/09/30 05:04:49;;;;;;;18.52;13.13;;;;;;;15.49;82.72;100035.03;1710991;82;21045;-64
2022/09/30 05:07:15;;;;;;;19.80;15.35;;;;;;;15.57;82.88;100039.84;1716437;82;21030;-64
2022/09/30 05:09:43;;;;;;;20.27;13.65;;;;;;;15.61;83.03;100035.86;1718449;83;21106;-64
2022/09/30 05:12:11;;;;;;;19.65;13.62;;;;;;;15.66;83.14;100032.72;1714344;82;21031;-64
2022/09/30 05:14:39;;;;;;;19.15;13.43;;;;;;;15.70;83.05;100026.11;1674694;84;21102;-64
2022/09/30 05:17:06;;;;;;;18.27;12.90;;;;;;;15.76;83.03;100036.08;1673136;84;21081;-65
2022/09/30 05:19:33;;;;;;;19.35;13.90;;;;;;;15.83;83.30;100040.22;1641700;85;21544;-65
2022/09/30 05:21:59;;;;;;;22.55;15.15;;;;;;;15.91;83.47;100029.61;1671992;84;21367;-65
2022/09/30 05:24:28;;;;;;;20.62;13.62;;;;;;;15.98;83.83;100035.91;1678844;85;23172;-64
2022/09/30 05:26:54;;;;;;;18.12;12.45;;;;;;;16.04;83.79;100033.58;1667671;85;21554;-64
2022/09/30 05:29:21;;;;;;;19.67;12.95;;;;;;;16.13;83.63;100037.90;1679163;85;21070;-65
2022/09/30 05:31:47;;;;;;;17.25;12.75;;;;;;;16.18;83.57;100040.06;1674403;84;21116;-64
2022/09/30 05:34:15;;;;;;;17.75;14.65;;;;;;;16.22;83.52;100041.37;1682881;84;21496;-64
2022/09/30 05:36:43;;;;;;;21.07;15.93;;;;;;;16.24;83.58;100042.02;1673295;84;21314;-64
2022/09/30 05:39:10;;;;;;;19.10;13.53;;;;;;;16.26;83.88;100048.02;1677770;84;21116;-64
2022/09/30 05:41:37;;;;;;;18.27;13.53;;;;;;;16.29;84.04;100048.51;1672614;85;21505;-64
2022/09/30 05:44:04;;;;;;;19.10;12.28;;;;;;;16.38;83.95;100054.63;1717345;82;21065;-63
2022/09/30 05:46:30;;;;;;;18.00;11.97;;;;;;;16.47;83.91;100063.40;1718314;83;21155;-64
2022/09/30 05:48:57;;;;;;;16.93;13.72;;;;;;;16.55;83.89;100056.75;1716805;82;21183;-63
2022/09/30 05:51:23;;;;;;;19.75;13.18;;;;;;;16.59;83.58;100053.25;1719955;83;21047;-64
2022/09/30 05:53:50;;;;;;;15.90;13.28;;;;;;;16.61;83.44;100057.88;1707961;82;21074;-64
2022/09/30 05:56:17;;;;;;;18.80;14.23;;;;;;;16.58;83.23;100070.20;1716237;82;21707;-64
2022/09/30 05:58:43;;;;;;;17.95;13.93;;;;;;;16.50;83.45;100073.18;1713885;83;21027;-64
2022/09/30 06:01:12;;;;;;;17.00;12.70;;;;;;;16.51;83.37;100075.36;1716769;83;21131;-64
2022/09/30 06:03:41;;;;;;;16.27;12.03;;;;;;;16.55;83.25;100074.52;1717894;83;21333;-63
2022/09/30 06:06:07;;;;;;;15.08;11.48;;;;;;;16.59;83.31;100075.31;1716970;82;21494;-64
2022/09/30 06:08:34;;;;;;;17.60;12.28;;;;;;;16.62;83.20;100074.16;1711011;82;21773;-64
2022/09/30 06:11:11;;;;;;;15.72;12.70;;;;;;;16.66;83.22;100078.97;1719390;83;20991;-64
2022/09/30 06:13:40;;;;;;;17.05;13.32;;;;;;;16.68;83.23;100081.46;1714320;83;21530;-64
2022/09/30 06:16:08;;;;;;;19.65;13.28;;;;;;;16.70;83.40;100083.45;1708458;82;21068;-65
2022/09/30 06:18:34;;;;;;;20.40;12.50;;;;;;;16.73;83.42;100088.42;1710394;82;21124;-64
2022/09/30 06:21:03;;;;;;;15.43;12.98;;;;;;;16.73;83.00;100091.08;1718206;82;21620;-64
2022/09/30 06:23:30;;;;;;;16.62;11.85;;;;;;;16.74;82.94;100094.05;1714776;82;21064;-63
2022/09/30 06:25:57;;;;;;;16.65;13.08;;;;;;;16.76;82.96;100096.53;1720227;82;21138;-64
2022/09/30 06:28:24;;;;;;;16.23;13.53;;;;;;;16.78;83.18;100107.34;1713821;82;21033;-64
2022/09/30 06:30:50;;;;;;;17.17;13.85;;;;;;;16.79;83.29;100117.45;1709742;83;22344;-64
2022/09/30 06:33:16;;;;;;;16.12;12.88;;;;;;;16.75;83.37;100108.18;1706993;82;21106;-65
2022/09/30 06:35:46;;;;;;;12.88;11.20;;;;;;;16.77;83.36;100112.31;1713780;83;21093;-65
2022/09/30 06:38:14;;;;;;;14.68;12.13;;;;;;;16.82;83.01;100113.14;1712565;83;21150;-64
2022/09/30 06:40:43;;;;;;;16.97;12.03;;;;;;;16.83;82.87;100112.15;1716260;82;21121;-64
2022/09/30 06:43:13;;;;;;;14.38;11.12;;;;;;;16.87;82.89;100105.00;1690081;83;21078;-63
2022/09/30 06:45:40;;;;;;;17.37;12.63;;;;;;;16.95;83.04;100100.17;1658985;85;21589;-64
2022/09/30 06:48:09;;;;;;;16.23;12.80;;;;;;;17.05;82.84;100105.30;1651195;85;21617;-64
2022/09/30 06:50:37;;;;;;;17.73;12.47;;;;;;;17.09;82.42;100102.61;1656188;85;21141;-64
2022/09/30 06:53:06;;;;;;;15.60;12.05;;;;;;;17.07;82.09;100116.06;1681681;84;22213;-64
2022/09/30 06:55:35;;;;;;;13.32;11.38;;;;;;;17.09;82.10;100114.57;1678537;84;21129;-63
2022/09/30 06:58:03;;;;;;;18.05;13.32;;;;;;;17.17;81.61;100109.23;1695776;83;21161;-64
2022/09/30 07:00:29;;;;;;;21.93;12.00;;;;;;;17.21;81.16;100111.03;1678357;84;21169;-64
2022/09/30 07:02:56;;;;;;;16.30;11.97;;;;;;;17.24;80.95;100112.84;1684161;84;21090;-64
2022/09/30 07:05:24;;;;;;;22.13;13.88;;;;;;;17.30;80.99;100118.47;1648809;86;21105;-64
2022/09/30 07:07:52;;;;;;;16.52;13.85;;;;;;;17.31;80.74;100120.14;1686019;84;21529;-64
2022/09/30 07:10:19;;;;;;;17.20;12.37;;;;;;;17.30;80.56;100126.45;1683404;84;21024;-63
2022/09/30 07:12:53;;;;;;;14.68;11.83;;;;;;;17.30;80.35;100127.77;1694239;83;21047;-64
2022/09/30 07:15:22;;;;;;;14.60;11.65;;;;;;;17.35;80.01;100134.73;1695336;83;21122;-64
2022/09/30 07:17:53;;;;;;;15.68;12.70;;;;;;;17.37;79.85;100136.74;1681108;84;21570;-64
2022/09/30 07:20:19;;;;;;;15.23;12.05;;;;;;;17.42;79.84;100143.19;1689606;83;22279;-63
2022/09/30 07:22:46;;;;;;;15.53;12.90;;;;;;;17.46;79.75;100140.50;1675619;84;21089;-62
2022/09/30 07:25:13;;;;;;;14.53;11.53;;;;;;;17.48;79.62;100141.66;1625085;86;21068;-62
2022/09/30 07:27:41;;;;;;;18.17;12.40;;;;;;;17.49;79.57;100147.31;1687254;83;21137;-63
2022/09/30 07:30:09;;;;;;;20.02;12.20;;;;;;;17.52;79.37;100152.80;1646879;85;21043;-63
2022/09/30 07:32:35;;;;;;;15.78;12.23;;;;;;;17.57;79.02;100147.28;1647032;87;21170;-63
2022/09/30 07:35:02;;;;;;;14.98;11.83;;;;;;;17.60;78.90;100154.91;1647117;87;21134;-62
2022/09/30 07:37:32;;;;;;;14.70;11.78;;;;;;;17.66;78.79;100148.56;1646956;87;21479;-62
2022/09/30 07:39:57;;;;;;;18.45;13.83;;;;;;;17.71;78.71;100152.86;1650645;86;21158;-63
2022/09/30 07:42:24;;;;;;;16.67;13.43;;;;;;;17.74;78.51;100156.51;1703402;83;21050;-63
2022/09/30 07:44:51;;;;;;;15.78;12.50;;;;;;;17.72;78.43;100159.81;1704571;83;21026;-63
2022/09/30 07:47:18;;;;;;;15.38;11.73;;;;;;;17.77;78.33;100165.44;1703106;83;21070;-63
2022/09/30 07:49:45;;;;;;;17.98;12.47;;;;;;;17.87;78.05;100164.78;1705476;83;21513;-64
2022/09/30 07:52:12;;;;;;;20.52;12.88;;;;;;;17.97;77.72;100162.71;1697148;83;22041;-64
2022/09/30 07:54:39;;;;;;;21.07;13.83;;;;;;;18.04;77.53;100172.63;1702621;83;21098;-63
2022/09/30 07:57:06;;;;;;;16.40;13.83;;;;;;;18.08;77.43;100169.45;1705310;83;21074;-64
2022/09/30 07:59:37;;;;;;;19.12;12.75;;;;;;;18.12;77.40;100165.45;1703144;83;21067;-63
2022/09/30 08:02:05;;;;;;;18.07;13.40;;;;;;;18.19;77.09;100169.56;1704694;83;21553;-64
2022/09/30 08:04:33;;;;;;;17.17;13.13;;;;;;;18.23;76.28;100168.70;1703484;83;21207;-64
2022/09/30 08:07:01;;;;;;;17.32;13.65;;;;;;;18.26;75.94;100173.67;1712102;82;21048;-64
2022/09/30 08:09:29;;;;;;;17.07;13.78;;;;;;;18.26;76.09;100169.16;1714291;83;21045;-63
2022/09/30 08:11:56;;;;;;;18.73;14.23;;;;;;;18.30;75.90;100167.78;1707321;82;21066;-64
2022/09/30 08:14:25;;;;;;;17.10;13.53;;;;;;;18.32;75.77;100164.95;1705255;82;21096;-63
2022/09/30 08:16:52;;;;;;;15.95;12.33;;;;;;;18.34;75.66;100162.92;1694620;83;22050;-63
2022/09/30 08:19:22;;;;;;;14.55;11.75;;;;;;;18.45;75.51;100167.02;1716015;83;21136;-64
2022/09/30 08:21:55;;;;;;;15.70;13.38;;;;;;;18.55;75.32;100168.92;1689276;82;21612;-65
2022/09/30 08:24:19;;;;;;;18.17;13.78;;;;;;;18.63;75.04;100174.70;1711276;82;21045;-63
2022/09/30 08:26:46;;;;;;;17.30;13.93;;;;;;;18.63;74.53;100174.19;1708245;82;21133;-63
2022/09/30 08:29:13;;;;;;;19.32;14.75;;;;;;;18.62;74.39;100179.17;1702705;84;21212;-64
2022/09/30 08:31:40;;;;;;;15.65;13.35;;;;;;;18.61;74.38;100188.20;1703231;82;21612;-64
2022/09/30 08:34:06;;;;;;;16.00;12.37;;;;;;;18.62;74.23;100184.50;1708570;82;21089;-63
2022/09/30 08:36:33;;;;;;;15.03;13.32;;;;;;;18.70;74.33;100187.09;1701875;83;21101;-63
2022/09/30 08:38:59;;;;;;;18.05;13.85;;;;;;;18.79;74.14;100184.36;1716045;83;21125;-63
2022/09/30 08:41:52;;;;;;;17.77;14.53;;;;;;;18.80;73.52;100190.84;1721295;83;21141;-64
2022/09/30 08:44:39;;;;;;;26.42;15.05;;;;;;;18.79;73.59;100192.36;1725169;83;21520;-63
2022/09/30 08:47:59;;;;;;;22.05;14.93;;;;;;;18.76;73.37;100200.20;1725486;82;21132;-62
2022/09/30 08:50:57;;;;;;;15.15;12.73;;;;;;;18.72;73.40;100200.25;1689179;83;21157;-63
2022/09/30 08:53:36;;;;;;;19.77;13.28;;;;;;;18.75;73.53;100194.05;1691086;83;21583;-63
2022/09/30 08:56:03;;;;;;;16.75;13.05;;;;;;;18.89;73.63;100191.62;1687310;84;21086;-63
2022/09/30 08:58:35;;;;;;;17.85;14.10;;;;;;;18.97;73.13;100191.54;1693495;83;21041;-63
2022/09/30 09:01:19;;;;;;;16.27;13.28;;;;;;;19.03;73.00;100192.16;1703446;83;21584;-63
2022/09/30 09:03:47;;;;;;;15.65;13.68;;;;;;;19.11;73.00;100193.89;1648660;86;21167;-63
2022/09/30 09:08:30;;;;;;;15.28;12.30;;;;;;;19.27;72.57;100197.72;1783698;79;22038;-65
2022/09/30 09:11:19;;;;;;;14.55;11.95;;;;;;;19.40;71.66;100201.08;1739026;80;21141;-66
2022/09/30 09:13:54;;;;;;;15.93;12.43;;;;;;;19.48;71.08;100208.14;1717791;80;21157;-66
2022/09/30 09:16:44;;;;;;;18.95;13.75;;;;;;;19.54;71.06;100206.07;1751703;81;21072;-66
2022/09/30 09:19:16;;;;;;;17.55;13.18;;;;;;;19.62;70.63;100211.31;1751037;80;21596;-66
2022/09/30 09:22:00;;;;;;;16.15;12.63;;;;;;;19.65;70.48;100204.75;1749567;80;21041;-66
2022/09/30 09:24:39;;;;;;;16.57;12.23;;;;;;;19.70;70.68;100201.02;1753006;81;21513;-66
2022/09/30 09:27:19;;;;;;;13.18;11.08;;;;;;;19.79;70.22;100203.95;1751317;80;21717;-66
2022/09/30 09:30:09;;;;;;;17.23;12.85;;;;;;;19.84;69.55;100203.39;1742358;81;21051;-66
2022/09/30 09:32:36;;;;;;;16.82;13.85;;;;;;;19.90;69.72;100203.13;1753096;80;21015;-66
2022/09/30 09:35:35;;;;;;;17.30;13.13;;;;;;;20.00;69.82;100207.66;1752963;80;21498;-66
2022/09/30 09:38:25;;;;;;;16.82;14.10;;;;;;;20.10;69.56;100208.69;1752198;80;21467;-66
2022/09/30 09:41:12;;;;;;;15.25;12.37;;;;;;;20.12;69.40;100203.98;1753045;81;21104;-67
2022/09/30 09:44:09;;;;;;;24.72;12.53;;;;;;;20.17;68.80;100210.92;1749538;80;21518;-66
2022/09/30 09:46:49;;;;;;;17.12;12.70;;;;;;;20.19;68.57;100212.40;1750919;81;21066;-65
2022/09/30 09:49:34;;;;;;;18.17;13.93;;;;;;;20.23;68.65;100214.99;1739017;80;20995;-65
2022/09/30 09:52:15;;;;;;;15.35;13.72;;;;;;;20.31;68.76;100216.72;1748537;80;21082;-65
2022/09/30 09:54:44;;;;;;;17.15;14.15;;;;;;;20.44;68.39;100219.20;1744165;80;21548;-65
2022/09/30 09:57:17;;;;;;;16.87;12.63;;;;;;;20.51;67.84;100219.59;1752996;80;21551;-65
2022/09/30 10:03:20;;;;;;;16.82;14.03;;;;;;;20.71;67.20;100213.11;1746890;80;21038;-65
2022/09/30 10:06:09;;;;;;;15.35;12.85;;;;;;;20.82;66.86;100211.73;1745500;81;21041;-66
2022/09/30 10:08:38;;;;;;;17.15;13.80;;;;;;;20.87;66.70;100209.30;1749449;80;21556;-65
2022/09/30 10:11:11;;;;;;;17.27;13.00;;;;;;;20.94;66.53;100208.02;1753110;80;21067;-65
2022/09/30 10:13:43;;;;;;;14.28;12.10;;;;;;;21.01;66.33;100208.88;1737847;80;21053;-65
2022/09/30 10:16:35;;;;;;;20.25;13.38;;;;;;;21.11;66.18;100209.35;1745901;80;21133;-65
2022/09/30 10:19:04;;;;;;;16.95;13.80;;;;;;;21.17;65.91;100203.75;1750130;80;21520;-66
2022/09/30 10:21:32;;;;;;;15.88;13.65;;;;;;;21.19;65.60;100204.89;1750882;81;21030;-67
2022/09/30 10:23:59;;;;;;;16.75;13.35;;;;;;;21.21;65.42;100213.54;1751976;80;21040;-66
2022/09/30 10:26:27;;;;;;;16.07;13.43;;;;;;;21.18;65.42;100220.62;1728778;81;21098;-66
2022/09/30 10:29:00;;;;;;;18.25;13.50;;;;;;;21.17;65.57;100210.95;1738663;80;21720;-66
2022/09/30 10:31:39;;;;;;;20.35;13.10;;;;;;;21.19;65.67;100219.09;1728361;80;21054;-67
2022/09/30 10:34:17;;;;;;;18.82;13.45;;;;;;;21.25;65.62;100218.31;1741677;80;21130;-66
2022/09/30 10:36:44;;;;;;;23.07;14.40;;;;;;;21.26;65.48;100217.27;1750587;80;21043;-66
2022/09/30 10:39:35;;;;;;;21.95;14.80;;;;;;;21.26;65.46;100220.47;1749267;80;21087;-66
2022/09/30 10:42:17;;;;;;;18.20;15.03;;;;;;;21.27;65.52;100220.27;1743160;80;22187;-66
2022/09/30 10:44:50;;;;;;;17.98;15.50;;;;;;;21.26;65.38;100223.95;1750197;81;21005;-66
2022/09/30 10:47:20;;;;;;;15.48;13.22;;;;;;;21.24;65.44;100231.36;1747817;80;22394;-66
2022/09/30 10:50:09;;;;;;;18.55;13.25;;;;;;;21.25;65.51;100233.03;1743072;80;21074;-66
2022/09/30 10:52:57;;;;;;;19.65;13.30;;;;;;;21.31;65.58;100226.05;1748174;80;21451;-66
2022/09/30 10:55:31;;;;;;;18.27;13.68;;;;;;;21.36;65.31;100230.81;1752547;81;21070;-66
2022/09/30 10:58:41;;;;;;;15.83;13.65;;;;;;;21.38;65.21;100230.10;1750381;81;21012;-66
2022/09/30 11:01:31;;;;;;;19.77;14.70;;;;;;;21.40;65.34;100230.73;1726799;81;21265;-66
2022/09/30 11:04:35;;;;;;;19.65;13.35;;;;;;;21.40;65.22;100226.22;1727928;80;21055;-65
2022/09/30 11:07:26;;;;;;;14.45;11.80;;;;;;;21.43;64.97;100229.81;1735634;81;20996;-66
2022/09/30 11:10:35;;;;;;;15.83;12.45;;;;;;;21.54;64.75;100231.67;1727377;81;21043;-66
2022/09/30 11:13:26;;;;;;;18.50;14.20;;;;;;;21.63;64.62;100239.31;1740439;80;21015;-66
2022/09/30 11:16:31;;;;;;;16.05;13.20;;;;;;;21.72;64.22;100240.00;1734068;81;21167;-66
2022/09/30 11:19:08;;;;;;;17.37;14.03;;;;;;;21.78;64.33;100240.52;1750549;81;21017;-66
2022/09/30 11:22:02;;;;;;;15.90;13.80;;;;;;;21.88;64.41;100242.83;1750714;80;21023;-65
2022/09/30 11:24:37;;;;;;;21.30;14.47;;;;;;;22.02;64.12;100243.20;1747973;81;21084;-65
2022/09/30 11:27:25;;;;;;;21.13;14.07;;;;;;;22.24;63.29;100247.04;1748523;80;21017;-65
2022/09/30 11:30:04;;;;;;;14.93;13.22;;;;;;;22.43;62.44;100248.16;1751568;80;21196;-65
2022/09/30 11:33:03;;;;;;;15.15;13.18;;;;;;;22.57;62.39;100248.99;1749708;81;21605;-65
2022/09/30 11:35:56;;;;;;;21.90;14.68;;;;;;;22.68;61.76;100244.36;1746127;81;21057;-65
2022/09/30 11:38:46;;;;;;;18.17;14.53;;;;;;;22.76;61.18;100244.66;1747066;81;21021;-65
2022/09/30 11:41:32;;;;;;;18.37;13.85;;;;;;;22.72;61.00;100244.25;1759180;81;21042;-65
2022/09/30 11:44:24;;;;;;;16.95;14.80;;;;;;;22.69;61.19;100245.19;1735748;81;26517;-65
2022/09/30 11:47:17;;;;;;;17.95;13.30;;;;;;;22.74;60.86;100247.55;1745684;81;21052;-65
2022/09/30 11:49:58;;;;;;;20.48;13.08;;;;;;;22.75;60.68;100244.37;1752753;80;21109;-65
2022/09/30 11:52:39;;;;;;;17.73;13.75;;;;;;;22.79;60.74;100250.95;1729063;81;21046;-66
2022/09/30 11:55:36;;;;;;;23.45;13.38;;;;;;;22.85;60.35;100250.14;1736228;81;21073;-66
2022/09/30 11:58:12;;;;;;;17.42;14.23;;;;;;;22.80;60.38;100248.07;1742355;81;21166;-65